Time;durP1;ratioP1;P1;durP2;ratioP2;P2;SDS_P1;SDS_P2;PMS_P1;PMS_P2;Temp;Humidity;BMP_temperature;BMP_pressure;BME280_temperature;BME280_humidity;BME280_pressure;Samples;Min_cycle;Max_cycle;Signal;HPM_P1;HPM_P2
2023/08/06 00:00:24;;;;;;;0.10;0.10;;;;;;;13.83;100.00;100228.38;5055346;28;20104;-51
2023/08/06 00:02:50;;;;;;;0.10;0.10;;;;;;;13.81;100.00;100233.56;5055621;28;20037;-52
2023/08/06 00:05:20;;;;;;;0.05;0.05;;;;;;;13.80;100.00;100230.94;5054559;28;20029;-52
2023/08/06 00:07:47;;;;;;;0.10;0.10;;;;;;;13.81;100.00;100233.56;5054839;28;20025;-52
2023/08/06 00:10:12;;;;;;;0.10;0.10;;;;;;;13.82;100.00;100232.69;5054432;28;20377;-52
2023/08/06 00:12:37;;;;;;;0.10;0.10;;;;;;;13.81;100.00;100230.97;5054824;28;20099;-52
2023/08/06 00:15:03;;;;;;;0.10;0.10;;;;;;;13.81;100.00;100230.09;5055424;28;20028;-51
2023/08/06 00:17:28;;;;;;;0.10;0.10;;;;;;;13.87;100.00;100229.28;5054064;28;20036;-51
2023/08/06 00:19:54;;;;;;;0.10;0.10;;;;;;;13.83;100.00;100229.25;5055164;28;20020;-51
2023/08/06 00:22:19;;;;;;;0.10;0.10;;;;;;;13.81;100.00;100222.31;5055101;28;20385;-51
2023/08/06 00:24:44;;;;;;;0.10;0.10;;;;;;;13.84;100.00;100219.75;5054082;28;20436;-51
2023/08/06 00:27:10;;;;;;;0.10;0.10;;;;;;;13.86;100.00;100215.44;5054889;28;20443;-49
2023/08/06 00:29:35;;;;;;;0.10;0.10;;;;;;;13.85;100.00;100215.44;5054712;28;20025;-50
2023/08/06 00:32:00;;;;;;;0.10;0.10;;;;;;;13.86;100.00;100217.19;5054103;28;20048;-50
2023/08/06 00:34:26;;;;;;;0.10;0.10;;;;;;;13.87;100.00;100218.91;5054668;28;20028;-50
2023/08/06 00:36:51;;;;;;;0.10;0.10;;;;;;;13.87;100.00;100218.91;5054871;28;20050;-50
2023/08/06 00:39:16;;;;;;;0.10;0.10;;;;;;;13.87;100.00;100218.91;5053886;28;20100;-51
2023/08/06 00:41:41;;;;;;;0.10;0.10;;;;;;;13.85;100.00;100218.03;5054520;28;20021;-51
2023/08/06 00:44:07;;;;;;;0.10;0.10;;;;;;;13.85;100.00;100208.53;5054636;28;20414;-51
2023/08/06 00:46:33;;;;;;;0.10;0.10;;;;;;;13.86;100.00;100218.03;5053364;28;20041;-51
2023/08/06 00:48:59;;;;;;;0.10;0.10;;;;;;;13.86;100.00;100209.41;5054421;28;20466;-52
2023/08/06 00:51:25;;;;;;;0.10;0.10;;;;;;;13.86;100.00;100206.81;5054100;28;20021;-52
2023/08/06 00:53:52;;;;;;;0.10;0.10;;;;;;;13.85;100.00;100215.44;5053596;28;20384;-52
2023/08/06 00:56:17;;;;;;;0.10;0.10;;;;;;;13.87;100.00;100205.97;5054195;28;20028;-51
2023/08/06 00:58:44;;;;;;;0.10;0.10;;;;;;;13.87;100.00;100203.38;5054126;28;20029;-50
2023/08/06 01:01:10;;;;;;;0.10;0.10;;;;;;;13.86;100.00;100204.22;5053666;28;20017;-51
2023/08/06 01:03:35;;;;;;;0.10;0.10;;;;;;;13.87;100.00;100204.22;5053825;28;20491;-52
2023/08/06 01:06:00;;;;;;;0.10;0.10;;;;;;;13.88;100.00;100205.09;5054295;28;20043;-52
2023/08/06 01:08:26;;;;;;;0.10;0.10;;;;;;;13.91;100.00;100205.13;5053009;28;20021;-50
2023/08/06 01:11:02;;;;;;;0.10;0.10;;;;;;;13.90;100.00;100208.56;5053982;28;20032;-50
2023/08/06 01:13:41;;;;;;;0.10;0.10;;;;;;;13.88;100.00;100205.97;5053156;28;20313;-48
2023/08/06 01:16:09;;;;;;;0.10;0.10;;;;;;;13.89;100.00;100201.63;5054092;28;20025;-51
2023/08/06 01:18:35;;;;;;;0.10;0.10;;;;;;;13.84;100.00;100199.03;5053377;28;20385;-52
2023/08/06 01:21:00;;;;;;;0.17;0.17;;;;;;;13.83;100.00;100207.66;5052555;28;20032;-52
2023/08/06 01:23:25;;;;;;;0.10;0.10;;;;;;;13.83;100.00;100207.66;5053978;28;20036;-51
2023/08/06 01:26:11;;;;;;;0.10;0.10;;;;;;;13.81;100.00;100210.25;5053881;28;20025;-50
2023/08/06 01:28:44;;;;;;;0.10;0.10;;;;;;;13.78;100.00;100205.03;5052781;28;20044;-52
2023/08/06 01:31:15;;;;;;;0.10;0.10;;;;;;;13.78;100.00;100210.22;5053812;28;20109;-50
2023/08/06 01:33:45;;;;;;;0.10;0.10;;;;;;;13.75;100.00;100210.22;5053243;28;20040;-51
2023/08/06 01:36:11;;;;;;;0.10;0.10;;;;;;;13.76;100.00;100203.28;5052777;28;20388;-51
2023/08/06 01:38:36;;;;;;;0.10;0.10;;;;;;;13.73;100.00;100206.72;5053384;28;20099;-49
2023/08/06 01:41:01;;;;;;;0.10;0.10;;;;;;;13.73;100.00;100196.38;5053671;28;20424;-52
2023/08/06 01:43:26;;;;;;;0.10;0.10;;;;;;;13.75;100.00;100202.44;5052500;28;20106;-51
2023/08/06 01:45:52;;;;;;;0.10;0.10;;;;;;;13.73;100.00;100206.72;5052719;28;20135;-51
2023/08/06 01:48:17;;;;;;;0.10;0.10;;;;;;;13.73;100.00;100200.69;5052574;28;20017;-50
2023/08/06 01:50:42;;;;;;;0.13;0.13;;;;;;;13.74;100.00;100205.03;5051384;28;20025;-51
2023/08/06 01:53:08;;;;;;;0.10;0.10;;;;;;;13.74;100.00;100205.88;5052662;28;20025;-51
2023/08/06 01:55:33;;;;;;;0.10;0.10;;;;;;;13.76;100.00;100209.34;5052069;28;20067;-53
2023/08/06 01:57:58;;;;;;;0.10;0.10;;;;;;;13.75;100.00;100198.97;5051913;28;20504;-51
2023/08/06 02:00:24;;;;;;;0.10;0.10;;;;;;;13.77;100.00;100202.44;5052047;28;20032;-51
2023/08/06 02:02:49;;;;;;;0.10;0.10;;;;;;;13.77;100.00;100202.44;5051553;28;20068;-51
2023/08/06 02:05:14;;;;;;;0.10;0.10;;;;;;;13.74;100.00;100203.28;5052552;28;20029;-51
2023/08/06 02:07:40;;;;;;;0.10;0.10;;;;;;;13.74;100.00;100208.47;5052217;28;20384;-51
2023/08/06 02:10:05;;;;;;;0.10;0.10;;;;;;;13.74;100.00;100203.28;5051648;28;20036;-52
2023/08/06 02:12:31;;;;;;;0.13;0.13;;;;;;;13.73;100.00;100203.28;5051871;28;20032;-52
2023/08/06 02:14:56;;;;;;;0.10;0.10;;;;;;;13.73;100.00;100204.13;5052308;28;20028;-51
2023/08/06 02:17:22;;;;;;;0.08;0.08;;;;;;;13.80;100.00;100203.34;5051317;28;20025;-52
2023/08/06 02:19:47;;;;;;;0.10;0.10;;;;;;;13.71;100.00;100198.09;5051811;28;20029;-51
2023/08/06 02:22:13;;;;;;;0.10;0.10;;;;;;;13.73;100.00;100204.13;5051972;28;20477;-52
2023/08/06 02:24:38;;;;;;;0.10;0.10;;;;;;;13.73;100.00;100208.47;5051106;28;20017;-51
2023/08/06 02:27:03;;;;;;;0.10;0.10;;;;;;;13.76;100.00;100204.19;5052099;28;20032;-50
2023/08/06 02:29:29;;;;;;;0.10;0.10;;;;;;;13.75;100.00;100204.13;5051789;28;20029;-51
2023/08/06 02:31:54;;;;;;;0.10;0.10;;;;;;;13.73;100.00;100200.69;5049955;28;20057;-51
2023/08/06 02:34:19;;;;;;;0.10;0.10;;;;;;;13.77;100.00;100205.88;5051771;28;20029;-51
2023/08/06 02:36:45;;;;;;;0.10;0.10;;;;;;;13.73;100.00;100198.97;5051790;28;20017;-51
2023/08/06 02:39:10;;;;;;;0.10;0.10;;;;;;;13.77;100.00;100202.44;5051205;28;20029;-51
2023/08/06 02:41:35;;;;;;;0.10;0.10;;;;;;;13.77;100.00;100198.13;5051573;28;20025;-49
2023/08/06 02:44:00;;;;;;;0.10;0.10;;;;;;;13.79;100.00;100191.22;5051822;28;20395;-51
2023/08/06 02:46:26;;;;;;;0.10;0.10;;;;;;;13.79;100.00;100191.22;5014964;28;1041990;-51
2023/08/06 02:48:51;;;;;;;0.10;0.10;;;;;;;13.83;100.00;100192.13;5052604;28;20071;-51
2023/08/06 02:51:16;;;;;;;0.10;0.10;;;;;;;13.85;100.00;100187.78;5052532;28;20025;-51
2023/08/06 02:53:42;;;;;;;0.10;0.10;;;;;;;13.85;100.00;100185.22;5051524;28;20075;-49
2023/08/06 02:56:07;;;;;;;0.10;0.10;;;;;;;13.89;100.00;100189.56;5052638;28;20029;-51
2023/08/06 02:58:32;;;;;;;0.10;0.10;;;;;;;13.91;100.00;100192.16;5052206;28;20027;-52
2023/08/06 03:01:04;;;;;;;0.10;0.10;;;;;;;13.90;100.00;100190.44;5052089;28;20068;-51
2023/08/06 03:03:31;;;;;;;0.10;0.10;;;;;;;13.90;100.00;100187.84;5052242;28;20025;-51
2023/08/06 03:05:57;;;;;;;0.10;0.10;;;;;;;13.88;100.00;100190.44;5051928;28;20033;-51
2023/08/06 03:08:22;;;;;;;0.10;0.10;;;;;;;13.85;100.00;100192.97;5052466;28;20438;-47
2023/08/06 03:10:49;;;;;;;0.20;0.20;;;;;;;13.86;100.00;100183.50;5052340;28;20055;-51
2023/08/06 03:13:15;;;;;;;0.10;0.10;;;;;;;13.87;100.00;100188.69;5051616;28;20791;-50
2023/08/06 03:15:40;;;;;;;0.10;0.10;;;;;;;13.87;100.00;100193.00;5051838;28;20516;-52
2023/08/06 03:18:06;;;;;;;0.10;0.10;;;;;;;13.87;100.00;100198.19;5052491;28;20071;-50
2023/08/06 03:20:34;;;;;;;0.10;0.10;;;;;;;13.89;100.00;100193.88;5051404;28;20109;-50
2023/08/06 03:22:59;;;;;;;0.10;0.10;;;;;;;13.82;100.00;100190.38;5052399;28;20028;-51
2023/08/06 03:25:25;;;;;;;0.10;0.10;;;;;;;13.86;100.00;100196.44;5051959;28;20033;-52
2023/08/06 03:27:50;;;;;;;0.10;0.10;;;;;;;13.86;100.00;100193.88;5051554;28;20032;-51
2023/08/06 03:30:15;;;;;;;0.10;0.10;;;;;;;13.85;100.00;100189.53;5052202;28;20033;-50
2023/08/06 03:32:41;;;;;;;0.10;0.10;;;;;;;13.84;100.00;100193.84;5052033;28;20021;-52
2023/08/06 03:35:07;;;;;;;0.10;0.10;;;;;;;13.86;100.00;100196.44;5051624;28;20461;-50
2023/08/06 03:37:32;;;;;;;0.10;0.10;;;;;;;13.86;100.00;100199.03;5052099;28;20025;-50
2023/08/06 03:39:57;;;;;;;0.10;0.10;;;;;;;13.85;100.00;100186.94;5052124;28;20060;-50
2023/08/06 03:42:22;;;;;;;0.10;0.10;;;;;;;13.86;100.00;100191.28;5051232;28;20104;-49
2023/08/06 03:44:48;;;;;;;0.10;0.10;;;;;;;13.83;100.00;100190.38;5055510;28;20111;-50
2023/08/06 03:47:13;;;;;;;0.10;0.10;;;;;;;13.87;100.00;100187.84;5055600;28;20354;-50
2023/08/06 03:49:39;;;;;;;0.10;0.10;;;;;;;13.83;100.00;100192.97;5054730;28;20025;-50
2023/08/06 03:52:05;;;;;;;0.10;0.10;;;;;;;13.83;100.00;100187.78;5055673;28;20469;-51
2023/08/06 03:54:30;;;;;;;0.20;0.20;;;;;;;13.83;100.00;100194.72;5055102;28;20025;-50
2023/08/06 03:56:56;;;;;;;0.10;0.10;;;;;;;13.79;100.00;100196.41;5054766;28;20108;-52
2023/08/06 03:59:21;;;;;;;0.10;0.10;;;;;;;13.78;100.00;100199.84;5055248;28;20044;-49
2023/08/06 04:01:46;;;;;;;0.10;0.10;;;;;;;13.78;100.00;100199.00;5055026;28;20057;-49
2023/08/06 04:04:12;;;;;;;0.13;0.13;;;;;;;13.78;100.00;100209.34;5054632;28;20047;-50
2023/08/06 04:06:37;;;;;;;0.10;0.10;;;;;;;13.79;100.00;100199.00;5055065;28;20041;-52
2023/08/06 04:09:02;;;;;;;0.10;0.10;;;;;;;13.77;100.00;100208.47;5055320;28;20025;-50
2023/08/06 04:11:28;;;;;;;0.13;0.13;;;;;;;13.81;100.00;100204.19;5054070;28;20033;-51
2023/08/06 04:13:55;;;;;;;0.10;0.10;;;;;;;13.77;100.00;100208.47;5054995;28;20060;-50
2023/08/06 04:16:20;;;;;;;0.10;0.10;;;;;;;13.80;100.00;100203.34;5054301;28;20032;-52
2023/08/06 04:18:45;;;;;;;0.10;0.10;;;;;;;13.77;100.00;100205.88;5054652;28;20392;-51
2023/08/06 04:21:11;;;;;;;0.10;0.10;;;;;;;13.78;100.00;100215.41;5055199;28;20096;-49
2023/08/06 04:23:36;;;;;;;0.10;0.10;;;;;;;13.78;100.00;100210.22;5054058;28;20888;-51
2023/08/06 04:26:02;;;;;;;0.10;0.10;;;;;;;13.84;100.00;100214.59;5055008;28;20025;-50
2023/08/06 04:28:27;;;;;;;0.05;0.05;;;;;;;13.85;100.00;100215.44;5054509;28;20032;-52
2023/08/06 04:30:53;;;;;;;0.10;0.10;;;;;;;13.81;100.00;100212.84;5054032;28;20025;-52
2023/08/06 04:33:19;;;;;;;0.10;0.10;;;;;;;13.85;100.00;100218.03;5054928;28;20025;-50
2023/08/06 04:35:44;;;;;;;0.17;0.17;;;;;;;13.86;100.00;100217.19;5054367;28;20488;-51
2023/08/06 04:38:09;;;;;;;0.15;0.15;;;;;;;13.87;100.00;100224.94;5054105;28;20025;-51
2023/08/06 04:40:36;;;;;;;0.10;0.10;;;;;;;13.87;100.00;100224.94;5054180;28;20025;-51
2023/08/06 04:43:01;;;;;;;0.10;0.10;;;;;;;13.86;100.00;100227.53;5054417;28;20037;-50
2023/08/06 04:45:26;;;;;;;0.10;0.10;;;;;;;13.90;100.00;100218.91;5053231;28;20362;-47
2023/08/06 04:47:52;;;;;;;0.10;0.10;;;;;;;13.92;100.00;100220.66;5054603;28;20044;-51
2023/08/06 04:50:19;;;;;;;0.10;0.10;;;;;;;13.93;100.00;100226.69;5054547;28;20025;-52
2023/08/06 04:52:44;;;;;;;0.10;0.10;;;;;;;13.92;100.00;100217.22;5053355;28;20532;-51
2023/08/06 04:55:09;;;;;;;0.10;0.10;;;;;;;13.91;100.00;100221.50;5053627;28;20151;-47
2023/08/06 04:57:34;;;;;;;0.10;0.10;;;;;;;13.93;100.00;100218.94;5054012;28;20029;-47
2023/08/06 05:00:00;;;;;;;0.10;0.10;;;;;;;13.96;100.00;100224.16;5053415;28;20432;-51
2023/08/06 05:02:25;;;;;;;0.10;0.10;;;;;;;13.96;100.00;100219.81;5054021;28;20049;-47
2023/08/06 05:04:50;;;;;;;0.10;0.10;;;;;;;13.99;100.00;100218.97;5054092;28;20547;-49
2023/08/06 05:07:16;;;;;;;0.10;0.10;;;;;;;14.06;100.00;100228.53;5053279;28;20056;-50
2023/08/06 05:09:41;;;;;;;0.10;0.10;;;;;;;14.12;100.00;100235.44;5053766;28;20112;-50
2023/08/06 05:12:07;;;;;;;0.10;0.10;;;;;;;14.18;100.00;100235.47;5053976;28;20031;-50
2023/08/06 05:14:32;;;;;;;0.10;0.10;;;;;;;14.11;100.00;100231.13;5052831;28;20031;-48
2023/08/06 05:16:57;;;;;;;0.10;0.10;;;;;;;14.18;100.00;100235.47;5053786;28;20408;-50
2023/08/06 05:19:22;;;;;;;0.10;0.10;;;;;;;14.21;100.00;100251.03;5053660;28;20025;-48
2023/08/06 05:21:48;;;;;;;0.10;0.10;;;;;;;14.25;100.00;100262.28;5053265;28;20108;-47
2023/08/06 05:24:13;;;;;;;0.10;0.10;;;;;;;14.25;100.00;100259.69;5053767;28;20028;-51
2023/08/06 05:26:38;;;;;;;0.10;0.10;;;;;;;14.27;100.00;100265.78;5052698;28;20024;-49
2023/08/06 05:29:04;;;;;;;0.10;0.10;;;;;;;14.29;100.00;100262.31;5053556;28;20029;-50
2023/08/06 05:31:29;;;;;;;0.10;0.10;;;;;;;14.33;100.00;100260.59;5053570;28;20057;-49
2023/08/06 05:33:55;;;;;;;0.10;0.10;;;;;;;14.37;100.00;100270.13;5052985;28;20017;-52
2023/08/06 05:36:21;;;;;;;0.10;0.10;;;;;;;14.44;100.00;100264.09;5053450;28;20104;-50
2023/08/06 05:38:46;;;;;;;0.10;0.10;;;;;;;14.42;100.00;100271.03;5053360;28;20087;-50
2023/08/06 05:41:12;;;;;;;0.10;0.10;;;;;;;14.52;100.00;100278.84;5052986;28;20037;-51
2023/08/06 05:43:37;;;;;;;0.10;0.10;;;;;;;14.61;100.00;100281.47;5052887;28;20033;-50
2023/08/06 05:46:02;;;;;;;0.10;0.10;;;;;;;14.67;100.00;100281.53;5053310;28;20052;-47
2023/08/06 05:48:28;;;;;;;0.10;0.10;;;;;;;14.72;100.00;100290.19;5052617;28;20017;-48
2023/08/06 05:50:53;;;;;;;0.10;0.10;;;;;;;14.80;100.00;100295.41;5053259;28;20033;-51
2023/08/06 05:53:18;;;;;;;0.10;0.10;;;;;;;14.86;100.00;100297.13;5053428;28;20025;-50
2023/08/06 05:55:44;;;;;;;0.10;0.10;;;;;;;14.99;100.00;100304.13;5052075;28;20079;-49
2023/08/06 05:58:10;;;;;;;0.10;0.10;;;;;;;15.06;100.00;100295.47;5052964;28;20017;-50
2023/08/06 06:00:35;;;;;;;0.10;0.10;;;;;;;15.19;100.00;100308.47;5052994;28;20037;-49
2023/08/06 06:03:02;;;;;;;0.10;0.10;;;;;;;15.19;100.00;100298.09;5052286;28;20029;-51
2023/08/06 06:05:27;;;;;;;0.20;0.20;;;;;;;15.30;100.00;100301.59;5052762;28;20031;-49
2023/08/06 06:07:52;;;;;;;0.10;0.10;;;;;;;15.34;100.00;100307.63;5053224;28;20021;-50
2023/08/06 06:10:18;;;;;;;0.10;0.10;;;;;;;15.43;100.00;100311.09;5052257;28;20048;-47
2023/08/06 06:12:43;;;;;;;0.10;0.10;;;;;;;15.45;100.00;100314.59;5052792;28;20025;-50
2023/08/06 06:15:09;;;;;;;0.10;0.10;;;;;;;15.49;100.00;100315.44;5052827;28;20029;-50
2023/08/06 06:17:34;;;;;;;0.10;0.10;;;;;;;15.45;100.00;100321.50;5052053;28;20021;-51
2023/08/06 06:19:59;;;;;;;0.10;0.10;;;;;;;15.38;100.00;100328.41;5053071;28;20032;-52
2023/08/06 06:22:25;;;;;;;0.10;0.10;;;;;;;15.27;100.00;100333.59;5052481;28;20437;-48
2023/08/06 06:24:50;;;;;;;0.10;0.10;;;;;;;15.25;100.00;100332.72;5051924;28;20036;-51
2023/08/06 06:27:15;;;;;;;0.10;0.10;;;;;;;15.22;100.00;100334.44;5052651;28;20051;-47
2023/08/06 06:29:41;;;;;;;0.10;0.10;;;;;;;15.21;100.00;100332.69;5052196;28;20907;-50
2023/08/06 06:32:06;;;;;;;0.10;0.10;;;;;;;15.11;100.00;100343.06;5052146;28;20108;-50
2023/08/06 06:34:32;;;;;;;0.00;0.00;;;;;;;15.12;100.00;100342.22;5052456;28;20047;-51
2023/08/06 06:36:57;;;;;;;0.10;0.10;;;;;;;15.02;100.00;100348.22;5051985;28;20029;-50
2023/08/06 06:39:22;;;;;;;0.10;0.10;;;;;;;15.01;100.00;100346.50;5052240;28;20059;-49
2023/08/06 06:41:48;;;;;;;0.10;0.10;;;;;;;14.94;100.00;100349.94;5052536;28;20039;-53
2023/08/06 06:44:13;;;;;;;0.10;0.10;;;;;;;14.90;100.00;100353.38;5051547;28;20037;-51
2023/08/06 06:46:39;;;;;;;0.10;0.10;;;;;;;14.86;100.00;100370.66;5052030;28;20130;-50
2023/08/06 06:49:04;;;;;;;0.10;0.10;;;;;;;14.81;100.00;100357.66;5052741;28;20048;-51
2023/08/06 06:51:31;;;;;;;0.10;0.10;;;;;;;14.84;100.00;100361.16;5051219;28;20024;-51
2023/08/06 06:53:57;;;;;;;0.10;0.10;;;;;;;14.87;100.00;100362.00;5052603;28;20036;-51
2023/08/06 06:56:22;;;;;;;0.13;0.13;;;;;;;14.91;100.00;100363.78;5052614;28;20021;-48
2023/08/06 06:58:47;;;;;;;0.10;0.10;;;;;;;14.91;100.00;100360.28;5051668;28;20107;-48
2023/08/06 07:01:13;;;;;;;0.10;0.10;;;;;;;15.01;100.00;100364.66;5052612;28;20098;-50
2023/08/06 07:03:38;;;;;;;0.10;0.10;;;;;;;15.12;100.00;100375.09;5052207;28;20354;-46
2023/08/06 07:06:05;;;;;;;0.10;0.10;;;;;;;15.23;100.00;100370.78;5051713;28;20037;-49
2023/08/06 07:08:30;;;;;;;0.10;0.10;;;;;;;15.22;100.00;100375.97;5052150;28;20021;-48
2023/08/06 07:11:06;;;;;;;0.10;0.10;;;;;;;15.34;100.00;100381.22;5052314;28;20035;-51
2023/08/06 07:13:32;;;;;;;0.10;0.10;;;;;;;15.31;100.00;100388.97;5051172;28;20118;-48
2023/08/06 07:15:58;;;;;;;0.10;0.10;;;;;;;15.31;100.00;100383.78;5052408;28;20021;-47
2023/08/06 07:18:24;;;;;;;0.10;0.10;;;;;;;15.25;100.00;100384.63;5053647;28;20028;-51
2023/08/06 07:20:54;;;;;;;0.10;0.10;;;;;;;15.08;100.00;100392.38;5055426;28;20025;-51
2023/08/06 07:23:24;;;;;;;0.10;0.10;;;;;;;14.89;100.00;100398.34;5056133;28;20032;-47
2023/08/06 07:25:50;;;;;;;0.10;0.10;;;;;;;14.71;100.00;100396.53;5055929;28;20031;-45
2023/08/06 07:28:16;;;;;;;0.10;0.10;;;;;;;14.43;100.00;100404.97;5055395;28;20028;-51
2023/08/06 07:30:43;;;;;;;0.10;0.10;;;;;;;14.26;100.00;100409.19;5055831;28;20376;-51
2023/08/06 07:33:08;;;;;;;0.10;0.10;;;;;;;14.09;100.00;100420.28;5055836;28;20465;-50
2023/08/06 07:35:35;;;;;;;0.00;0.00;;;;;;;13.91;100.00;100431.34;5054925;28;20107;-49
2023/08/06 07:38:01;;;;;;;0.10;0.10;;;;;;;13.77;100.00;100417.41;5055771;28;20036;-49
2023/08/06 07:40:27;;;;;;;0.10;0.10;;;;;;;13.66;100.00;100436.28;5054601;28;20475;-47
2023/08/06 07:42:53;;;;;;;0.10;0.10;;;;;;;13.55;100.00;100418.91;5055778;28;20087;-48
2023/08/06 07:45:18;;;;;;;0.13;0.13;;;;;;;13.55;100.00;100439.63;5055672;28;20045;-46
2023/08/06 07:47:44;;;;;;;0.20;0.20;;;;;;;13.47;100.00;100437.81;5054619;28;20025;-45
2023/08/06 07:50:09;;;;;;;0.10;0.10;;;;;;;13.39;100.00;100438.56;5055604;28;20472;-50
2023/08/06 07:52:35;;;;;;;0.10;0.10;;;;;;;13.34;100.00;100433.31;5055175;28;20040;-49
2023/08/06 07:55:04;;;;;;;0.10;0.10;;;;;;;13.36;100.00;100443.69;5054740;28;20032;-50
2023/08/06 07:57:30;;;;;;;0.17;0.17;;;;;;;13.25;100.00;100441.84;5054899;28;20031;-51
2023/08/06 07:59:56;;;;;;;0.10;0.10;;;;;;;13.25;100.00;100444.44;5055447;28;20103;-45
2023/08/06 08:02:21;;;;;;;0.10;0.10;;;;;;;13.18;100.00;100448.66;5054591;28;20037;-46
2023/08/06 08:04:47;;;;;;;0.10;0.10;;;;;;;13.21;100.00;100449.53;5054954;28;20021;-49
2023/08/06 08:07:13;;;;;;;0.10;0.10;;;;;;;13.14;100.00;100449.50;5055167;28;20021;-51
2023/08/06 08:09:38;;;;;;;0.10;0.10;;;;;;;13.17;100.00;100451.25;5054122;28;20021;-51
2023/08/06 08:12:04;;;;;;;0.10;0.10;;;;;;;13.10;100.00;100446.81;5055281;28;20388;-45
2023/08/06 08:14:35;;;;;;;0.10;0.10;;;;;;;13.07;100.00;100442.47;5055043;28;20457;-49
2023/08/06 08:17:00;;;;;;;0.10;0.10;;;;;;;13.04;100.00;100450.22;5054512;28;20035;-47
2023/08/06 08:19:25;;;;;;;0.10;0.10;;;;;;;12.99;100.00;100454.47;5054793;28;20024;-49
2023/08/06 08:21:50;;;;;;;0.10;0.10;;;;;;;12.98;100.00;100455.31;5055102;28;20097;-50
2023/08/06 08:24:19;;;;;;;0.10;0.10;;;;;;;12.95;100.00;100463.00;5054002;28;20037;-46
2023/08/06 08:26:44;;;;;;;0.10;0.10;;;;;;;12.94;100.00;100469.06;5054901;28;20369;-46
2023/08/06 08:29:10;;;;;;;0.10;0.10;;;;;;;12.96;100.00;100477.69;5054961;28;20469;-48
2023/08/06 08:31:39;;;;;;;0.10;0.10;;;;;;;12.98;100.00;100473.41;5053819;28;20082;-45
2023/08/06 08:34:05;;;;;;;0.10;0.10;;;;;;;13.01;100.00;100478.63;5054646;28;20473;-49
2023/08/06 08:36:30;;;;;;;0.10;0.10;;;;;;;13.07;100.00;100486.47;5053628;28;20071;-49
2023/08/06 08:38:56;;;;;;;0.10;0.10;;;;;;;13.12;100.00;100481.38;5054700;28;20067;-50
2023/08/06 08:41:21;;;;;;;0.10;0.10;;;;;;;13.13;100.00;100480.50;5054723;28;20025;-48
2023/08/06 08:43:51;;;;;;;0.10;0.10;;;;;;;13.15;100.00;100497.78;5053761;28;20051;-48
2023/08/06 08:46:18;;;;;;;0.10;0.10;;;;;;;13.17;100.00;100485.75;5054326;28;20079;-45
2023/08/06 08:48:43;;;;;;;0.10;0.10;;;;;;;13.26;100.00;100486.69;5054215;28;20093;-50
2023/08/06 08:51:11;;;;;;;0.20;0.20;;;;;;;13.31;100.00;100495.38;5053723;28;20021;-49
2023/08/06 08:53:39;;;;;;;0.20;0.20;;;;;;;13.32;100.00;100499.72;5054284;28;20078;-50
2023/08/06 08:56:05;;;;;;;0.10;0.10;;;;;;;13.36;100.00;100496.31;5054486;28;20059;-45
2023/08/06 08:58:30;;;;;;;0.10;0.10;;;;;;;13.42;100.00;100496.44;5053398;28;20048;-52
2023/08/06 09:00:56;;;;;;;0.10;0.10;;;;;;;13.40;100.00;100505.91;5054424;28;20525;-48
2023/08/06 09:03:22;;;;;;;0.10;0.10;;;;;;;13.40;100.00;100510.19;5054156;28;20029;-48
2023/08/06 09:05:51;;;;;;;0.10;0.10;;;;;;;13.37;100.00;100503.28;5053162;28;20028;-46
2023/08/06 09:08:19;;;;;;;0.10;0.10;;;;;;;13.34;100.00;100518.75;5054244;28;20052;-51
2023/08/06 09:10:45;;;;;;;0.20;0.20;;;;;;;13.38;100.00;100525.72;5053686;28;20029;-45
2023/08/06 09:13:12;;;;;;;0.17;0.17;;;;;;;13.45;100.00;100526.66;5053101;28;20021;-47
2023/08/06 09:15:37;;;;;;;0.10;0.10;;;;;;;13.43;100.00;100534.41;5053649;28;20270;-47
2023/08/06 09:18:10;;;;;;;0.10;0.10;;;;;;;13.47;100.00;100535.34;5053916;28;20021;-48
2023/08/06 09:20:37;;;;;;;0.10;0.10;;;;;;;13.60;100.00;100541.53;5052703;28;20031;-50
2023/08/06 09:23:09;;;;;;;0.20;0.20;;;;;;;13.62;100.00;100539.81;5053873;28;20122;-49
2023/08/06 09:25:38;;;;;;;0.10;0.10;;;;;;;13.60;100.00;100546.72;5053700;28;20031;-49
2023/08/06 09:28:03;;;;;;;0.10;0.10;;;;;;;13.55;100.00;100553.56;5052907;28;20438;-46
2023/08/06 09:30:38;;;;;;;0.10;0.10;;;;;;;13.60;100.00;100560.50;5053411;28;20102;-46
2023/08/06 09:33:10;;;;;;;0.10;0.10;;;;;;;13.62;100.00;100558.81;5052723;28;20017;-43
2023/08/06 09:35:35;;;;;;;0.10;0.10;;;;;;;13.60;100.00;100559.66;5053349;28;20481;-48
2023/08/06 09:38:08;;;;;;;0.10;0.10;;;;;;;13.60;100.00;100564.84;5053689;28;20031;-50
2023/08/06 09:40:34;;;;;;;0.10;0.10;;;;;;;13.57;100.00;100559.59;5051880;28;20481;-44
2023/08/06 09:43:00;;;;;;;0.10;0.10;;;;;;;13.59;100.00;100563.09;5053282;28;20032;-50
2023/08/06 09:45:32;;;;;;;0.10;0.10;;;;;;;13.68;100.00;100567.53;5052867;28;20514;-50
2023/08/06 09:47:58;;;;;;;0.10;0.10;;;;;;;13.66;100.00;100564.91;5052879;28;20021;-45
2023/08/06 09:50:30;;;;;;;0.10;0.10;;;;;;;13.66;100.00;100576.13;5053206;28;20078;-46
2023/08/06 09:52:55;;;;;;;0.10;0.10;;;;;;;13.66;100.00;100572.69;5053585;28;20087;-50
2023/08/06 09:55:21;;;;;;;0.10;0.10;;;;;;;13.65;100.00;100576.97;5052534;28;20468;-52
2023/08/06 09:57:47;;;;;;;0.17;0.17;;;;;;;13.69;100.00;100583.06;5052870;28;20040;-48
2023/08/06 10:00:13;;;;;;;0.10;0.10;;;;;;;13.64;100.00;100576.97;5053413;28;20512;-48
2023/08/06 10:02:39;;;;;;;0.10;0.10;;;;;;;13.64;100.00;100587.31;5051199;28;20407;-50
2023/08/06 10:05:05;;;;;;;0.10;0.10;;;;;;;13.67;100.00;100592.53;5052956;28;20373;-51
2023/08/06 10:07:31;;;;;;;0.10;0.10;;;;;;;13.66;100.00;100583.03;5052661;28;20108;-50
2023/08/06 10:10:03;;;;;;;0.13;0.13;;;;;;;13.67;100.00;100592.53;5052219;28;20108;-52
2023/08/06 10:12:32;;;;;;;0.10;0.10;;;;;;;13.70;100.00;100590.00;5052568;28;20028;-50
2023/08/06 10:15:01;;;;;;;0.10;0.10;;;;;;;13.79;100.00;100591.84;5052480;28;20024;-48
2023/08/06 10:17:27;;;;;;;0.10;0.10;;;;;;;13.84;100.00;100592.75;5052598;28;20021;-46
2023/08/06 10:19:55;;;;;;;0.10;0.10;;;;;;;13.86;100.00;100601.41;5052981;28;20115;-50
2023/08/06 10:22:21;;;;;;;0.10;0.10;;;;;;;13.83;100.00;100602.25;5052147;28;20114;-51
2023/08/06 10:24:46;;;;;;;0.10;0.10;;;;;;;13.83;100.00;100602.25;5052503;28;20095;-52
2023/08/06 10:27:11;;;;;;;0.10;0.10;;;;;;;13.80;100.00;100594.44;5052739;28;20570;-51
2023/08/06 10:29:38;;;;;;;0.10;0.10;;;;;;;13.80;100.00;100601.31;5051834;28;20013;-47
2023/08/06 10:32:06;;;;;;;0.10;0.10;;;;;;;13.91;100.00;100601.47;5052625;28;20112;-51
2023/08/06 10:35:00;;;;;;;0.10;0.10;;;;;;;13.90;100.00;100603.19;5052438;28;20045;-51
2023/08/06 10:37:36;;;;;;;0.10;0.10;;;;;;;13.92;100.00;100605.81;5051593;28;20431;-50
2023/08/06 10:40:03;;;;;;;0.13;0.13;;;;;;;13.88;100.00;100609.19;5052894;28;20033;-46
2023/08/06 10:42:29;;;;;;;0.10;0.10;;;;;;;13.97;100.00;100614.50;5052404;28;20021;-52
2023/08/06 10:45:15;;;;;;;0.10;0.10;;;;;;;13.93;100.00;100612.72;5051894;28;20049;-49
2023/08/06 10:47:41;;;;;;;0.10;0.10;;;;;;;13.92;100.00;100616.16;5052273;28;20556;-50
2023/08/06 10:50:08;;;;;;;0.10;0.10;;;;;;;13.97;100.00;100611.91;5052015;28;20060;-46
2023/08/06 10:52:34;;;;;;;0.20;0.20;;;;;;;14.06;100.00;100619.78;5052930;28;20055;-51
2023/08/06 10:55:00;;;;;;;0.10;0.10;;;;;;;14.08;100.00;100617.22;5056672;28;20053;-47
2023/08/06 10:57:25;;;;;;;0.10;0.10;;;;;;;14.21;100.00;100620.81;5055609;28;20048;-50
2023/08/06 10:59:50;;;;;;;0.10;0.10;;;;;;;14.21;100.00;100623.41;5056621;28;20452;-47
2023/08/06 11:02:16;;;;;;;0.10;0.10;;;;;;;14.17;100.00;100612.13;5056477;28;20525;-52
2023/08/06 11:04:42;;;;;;;0.10;0.10;;;;;;;14.09;100.00;100619.81;5055325;28;20470;-49
2023/08/06 11:07:07;;;;;;;0.10;0.10;;;;;;;14.05;100.00;100627.56;5056554;28;20083;-49
2023/08/06 11:09:32;;;;;;;0.10;0.10;;;;;;;13.95;100.00;100611.00;5056316;28;20033;-50
2023/08/06 11:11:57;;;;;;;0.10;0.10;;;;;;;13.86;100.00;100622.13;5055732;28;20021;-45